sensor_id;sensor_type;location;lat;lon;timestamp;temperature;humidity
17797;DHT22;55596;53.554;9.916;2023-02-04T00:02:06;2.70;99.90
17797;DHT22;55596;53.554;9.916;2023-02-04T00:04:33;2.70;99.90
17797;DHT22;55596;53.554;9.916;2023-02-04T00:06:59;2.70;99.90
17797;DHT22;55596;53.554;9.916;2023-02-04T00:09:26;2.70;99.90
17797;DHT22;55596;53.554;9.916;2023-02-04T00:11:53;2.70;99.90
17797;DHT22;55596;53.554;9.916;2023-02-04T00:14:20;2.70;99.90
17797;DHT22;55596;53.554;9.916;2023-02-04T00:16:47;2.80;99.90
17797;DHT22;55596;53.554;9.916;2023-02-04T00:19:15;2.80;99.90
17797;DHT22;55596;53.554;9.916;2023-02-04T00:21:42;3.00;99.90
17797;DHT22;55596;53.554;9.916;2023-02-04T00:24:09;3.00;99.90
17797;DHT22;55596;53.554;9.916;2023-02-04T00:26:35;3.00;99.90
17797;DHT22;55596;53.554;9.916;2023-02-04T00:29:02;3.10;99.90
17797;DHT22;55596;53.554;9.916;2023-02-04T00:31:29;3.20;99.90
17797;DHT22;55596;53.554;9.916;2023-02-04T00:33:56;3.30;99.90
17797;DHT22;55596;53.554;9.916;2023-02-04T00:36:25;3.30;99.90
17797;DHT22;55596;53.554;9.916;2023-02-04T00:38:52;3.30;99.90
17797;DHT22;55596;53.554;9.916;2023-02-04T00:41:19;3.30;99.90
17797;DHT22;55596;53.554;9.916;2023-02-04T00:43:46;3.20;99.90
17797;DHT22;55596;53.554;9.916;2023-02-04T00:46:13;3.10;99.90
17797;DHT22;55596;53.554;9.916;2023-02-04T00:48:39;2.90;99.90
17797;DHT22;55596;53.554;9.916;2023-02-04T00:51:06;2.70;99.90
17797;DHT22;55596;53.554;9.916;2023-02-04T00:53:34;2.60;99.90
17797;DHT22;55596;53.554;9.916;2023-02-04T00:56:01;2.40;99.90
17797;DHT22;55596;53.554;9.916;2023-02-04T00:58:28;2.30;99.90
17797;DHT22;55596;53.554;9.916;2023-02-04T01:00:55;2.20;99.90
17797;DHT22;55596;53.554;9.916;2023-02-04T01:03:21;2.20;99.90
17797;DHT22;55596;53.554;9.916;2023-02-04T01:05:48;2.20;99.90
17797;DHT22;55596;53.554;9.916;2023-02-04T01:08:15;2.10;99.90
17797;DHT22;55596;53.554;9.916;2023-02-04T01:10:44;2.10;99.90
17797;DHT22;55596;53.554;9.916;2023-02-04T01:13:10;2.10;99.90
17797;DHT22;55596;53.554;9.916;2023-02-04T01:15:38;2.00;99.90
17797;DHT22;55596;53.554;9.916;2023-02-04T01:18:04;2.00;99.90
17797;DHT22;55596;53.554;9.916;2023-02-04T01:20:31;1.90;99.90
17797;DHT22;55596;53.554;9.916;2023-02-04T01:22:58;1.80;99.90
17797;DHT22;55596;53.554;9.916;2023-02-04T01:25:25;1.80;99.90
17797;DHT22;55596;53.554;9.916;2023-02-04T01:27:53;1.70;99.90
17797;DHT22;55596;53.554;9.916;2023-02-04T01:30:20;1.50;99.90
17797;DHT22;55596;53.554;9.916;2023-02-04T01:32:47;1.50;99.90
17797;DHT22;55596;53.554;9.916;2023-02-04T01:35:14;1.50;99.90
17797;DHT22;55596;53.554;9.916;2023-02-04T01:37:40;1.60;99.90
17797;DHT22;55596;53.554;9.916;2023-02-04T01:40:09;1.50;99.90
17797;DHT22;55596;53.554;9.916;2023-02-04T01:42:36;1.50;99.90
17797;DHT22;55596;53.554;9.916;2023-02-04T01:45:05;1.50;99.90
17797;DHT22;55596;53.554;9.916;2023-02-04T01:47:32;1.40;99.90
17797;DHT22;55596;53.554;9.916;2023-02-04T01:50:00;1.40;99.90
17797;DHT22;55596;53.554;9.916;2023-02-04T01:52:31;1.50;99.90
17797;DHT22;55596;53.554;9.916;2023-02-04T01:54:59;1.50;99.90
17797;DHT22;55596;53.554;9.916;2023-02-04T01:57:26;1.50;99.90
17797;DHT22;55596;53.554;9.916;2023-02-04T01:59:54;1.60;99.90
17797;DHT22;55596;53.554;9.916;2023-02-04T02:02:45;1.80;99.90
17797;DHT22;55596;53.554;9.916;2023-02-04T02:05:16;1.90;99.90
17797;DHT22;55596;53.554;9.916;2023-02-04T02:07:43;1.90;99.90
17797;DHT22;55596;53.554;9.916;2023-02-04T02:10:11;1.90;99.90
17797;DHT22;55596;53.554;9.916;2023-02-04T02:12:39;1.90;99.90
17797;DHT22;55596;53.554;9.916;2023-02-04T02:15:07;2.00;99.90
17797;DHT22;55596;53.554;9.916;2023-02-04T02:17:35;2.10;99.90
17797;DHT22;55596;53.554;9.916;2023-02-04T02:20:05;2.20;99.90
17797;DHT22;55596;53.554;9.916;2023-02-04T02:22:35;2.20;99.90
17797;DHT22;55596;53.554;9.916;2023-02-04T02:25:09;2.30;99.90
17797;DHT22;55596;53.554;9.916;2023-02-04T02:27:36;2.20;99.90
17797;DHT22;55596;53.554;9.916;2023-02-04T02:30:04;2.20;99.90
17797;DHT22;55596;53.554;9.916;2023-02-04T02:32:32;2.30;99.90
17797;DHT22;55596;53.554;9.916;2023-02-04T02:34:58;2.30;99.90
17797;DHT22;55596;53.554;9.916;2023-02-04T02:37:25;2.40;99.90
17797;DHT22;55596;53.554;9.916;2023-02-04T02:39:53;2.40;99.90
17797;DHT22;55596;53.554;9.916;2023-02-04T02:42:21;2.40;99.90
17797;DHT22;55596;53.554;9.916;2023-02-04T02:44:49;2.40;99.90
17797;DHT22;55596;53.554;9.916;2023-02-04T02:47:19;2.50;99.90
17797;DHT22;55596;53.554;9.916;2023-02-04T02:49:49;2.50;99.90
17797;DHT22;55596;53.554;9.916;2023-02-04T02:52:16;2.50;99.90
17797;DHT22;55596;53.554;9.916;2023-02-04T02:54:43;2.60;99.90
17797;DHT22;55596;53.554;9.916;2023-02-04T02:57:13;2.60;99.90
17797;DHT22;55596;53.554;9.916;2023-02-04T02:59:42;2.70;99.90
17797;DHT22;55596;53.554;9.916;2023-02-04T03:02:10;2.60;99.90
17797;DHT22;55596;53.554;9.916;2023-02-04T03:04:41;2.50;99.90
17797;DHT22;55596;53.554;9.916;2023-02-04T03:07:09;2.40;99.90
17797;DHT22;55596;53.554;9.916;2023-02-04T03:09:36;2.20;99.90
17797;DHT22;55596;53.554;9.916;2023-02-04T03:12:04;2.10;99.90
17797;DHT22;55596;53.554;9.916;2023-02-04T03:14:32;1.90;99.90
17797;DHT22;55596;53.554;9.916;2023-02-04T03:17:01;1.70;99.90
17797;DHT22;55596;53.554;9.916;2023-02-04T03:19:30;1.60;99.90
17797;DHT22;55596;53.554;9.916;2023-02-04T03:21:57;1.50;99.90
17797;DHT22;55596;53.554;9.916;2023-02-04T03:24:25;1.40;99.90
17797;DHT22;55596;53.554;9.916;2023-02-04T03:26:52;1.30;99.90
17797;DHT22;55596;53.554;9.916;2023-02-04T03:29:19;1.10;99.90
17797;DHT22;55596;53.554;9.916;2023-02-04T03:31:46;1.00;99.90
17797;DHT22;55596;53.554;9.916;2023-02-04T03:34:14;0.90;99.90
17797;DHT22;55596;53.554;9.916;2023-02-04T03:36:41;0.80;99.90
17797;DHT22;55596;53.554;9.916;2023-02-04T03:39:07;0.80;99.90
17797;DHT22;55596;53.554;9.916;2023-02-04T03:41:34;0.70;99.90
17797;DHT22;55596;53.554;9.916;2023-02-04T03:44:01;0.70;99.90
17797;DHT22;55596;53.554;9.916;2023-02-04T03:46:28;0.70;99.90
17797;DHT22;55596;53.554;9.916;2023-02-04T03:48:55;0.70;99.90
17797;DHT22;55596;53.554;9.916;2023-02-04T03:51:23;0.50;99.90
17797;DHT22;55596;53.554;9.916;2023-02-04T03:53:50;0.50;99.90
17797;DHT22;55596;53.554;9.916;2023-02-04T03:56:17;0.60;99.90
17797;DHT22;55596;53.554;9.916;2023-02-04T03:58:44;0.50;99.90
17797;DHT22;55596;53.554;9.916;2023-02-04T04:01:10;0.50;99.90
17797;DHT22;55596;53.554;9.916;2023-02-04T04:03:37;0.60;99.90
17797;DHT22;55596;53.554;9.916;2023-02-04T04:06:04;0.40;99.90
17797;DHT22;55596;53.554;9.916;2023-02-04T04:08:35;0.50;99.90
17797;DHT22;55596;53.554;9.916;2023-02-04T04:11:02;0.50;99.90
17797;DHT22;55596;53.554;9.916;2023-02-04T04:13:29;0.60;99.90
17797;DHT22;55596;53.554;9.916;2023-02-04T04:15:56;0.70;99.90
17797;DHT22;55596;53.554;9.916;2023-02-04T04:18:23;0.80;99.90
17797;DHT22;55596;53.554;9.916;2023-02-04T04:20:49;0.90;99.90
17797;DHT22;55596;53.554;9.916;2023-02-04T04:23:16;1.00;99.90
17797;DHT22;55596;53.554;9.916;2023-02-04T04:25:44;1.10;99.90
17797;DHT22;55596;53.554;9.916;2023-02-04T04:28:11;1.20;99.90
17797;DHT22;55596;53.554;9.916;2023-02-04T04:30:38;1.40;99.90
17797;DHT22;55596;53.554;9.916;2023-02-04T04:33:05;1.40;99.90
17797;DHT22;55596;53.554;9.916;2023-02-04T04:35:32;1.50;99.90
17797;DHT22;55596;53.554;9.916;2023-02-04T04:37:59;1.70;99.90
17797;DHT22;55596;53.554;9.916;2023-02-04T04:40:26;1.50;99.90
17797;DHT22;55596;53.554;9.916;2023-02-04T04:42:54;1.60;99.90
17797;DHT22;55596;53.554;9.916;2023-02-04T04:45:21;1.60;99.90
17797;DHT22;55596;53.554;9.916;2023-02-04T04:47:48;1.70;99.90
17797;DHT22;55596;53.554;9.916;2023-02-04T04:50:15;1.70;99.90
17797;DHT22;55596;53.554;9.916;2023-02-04T04:52:42;1.70;99.90
17797;DHT22;55596;53.554;9.916;2023-02-04T04:55:09;1.70;99.90
17797;DHT22;55596;53.554;9.916;2023-02-04T04:57:36;1.80;99.90
17797;DHT22;55596;53.554;9.916;2023-02-04T05:00:06;1.80;99.90
17797;DHT22;55596;53.554;9.916;2023-02-04T05:02:33;1.80;99.90
17797;DHT22;55596;53.554;9.916;2023-02-04T05:05:00;1.80;99.90
17797;DHT22;55596;53.554;9.916;2023-02-04T05:07:27;1.80;99.90
17797;DHT22;55596;53.554;9.916;2023-02-04T05:09:54;1.90;99.90
17797;DHT22;55596;53.554;9.916;2023-02-04T05:12:21;1.90;99.90
17797;DHT22;55596;53.554;9.916;2023-02-04T05:14:47;1.90;99.90
17797;DHT22;55596;53.554;9.916;2023-02-04T05:17:16;2.00;99.90
17797;DHT22;55596;53.554;9.916;2023-02-04T05:19:42;2.00;99.90
17797;DHT22;55596;53.554;9.916;2023-02-04T05:22:09;2.00;99.90
17797;DHT22;55596;53.554;9.916;2023-02-04T05:24:36;2.10;99.90
17797;DHT22;55596;53.554;9.916;2023-02-04T05:27:03;2.10;99.90
17797;DHT22;55596;53.554;9.916;2023-02-04T05:29:30;2.00;99.90
17797;DHT22;55596;53.554;9.916;2023-02-04T05:31:57;2.10;99.90
17797;DHT22;55596;53.554;9.916;2023-02-04T05:34:25;2.00;99.90
17797;DHT22;55596;53.554;9.916;2023-02-04T05:36:52;1.90;99.90
17797;DHT22;55596;53.554;9.916;2023-02-04T05:39:18;1.70;99.90
17797;DHT22;55596;53.554;9.916;2023-02-04T05:41:45;1.50;99.90
17797;DHT22;55596;53.554;9.916;2023-02-04T05:44:12;1.30;99.90
17797;DHT22;55596;53.554;9.916;2023-02-04T05:46:39;1.20;99.90
17797;DHT22;55596;53.554;9.916;2023-02-04T05:49:06;1.00;99.90
17797;DHT22;55596;53.554;9.916;2023-02-04T05:51:34;0.90;99.90
17797;DHT22;55596;53.554;9.916;2023-02-04T05:54:01;0.80;99.90
17797;DHT22;55596;53.554;9.916;2023-02-04T05:56:28;0.70;99.90
17797;DHT22;55596;53.554;9.916;2023-02-04T05:58:54;0.60;99.90
17797;DHT22;55596;53.554;9.916;2023-02-04T06:01:21;0.50;99.90
17797;DHT22;55596;53.554;9.916;2023-02-04T06:03:48;0.80;99.90
17797;DHT22;55596;53.554;9.916;2023-02-04T06:06:15;0.30;99.90
17797;DHT22;55596;53.554;9.916;2023-02-04T06:08:43;0.30;99.90
17797;DHT22;55596;53.554;9.916;2023-02-04T06:11:10;0.20;99.90
17797;DHT22;55596;53.554;9.916;2023-02-04T06:13:37;0.20;99.90
17797;DHT22;55596;53.554;9.916;2023-02-04T06:16:04;0.10;99.90
17797;DHT22;55596;53.554;9.916;2023-02-04T06:18:31;0.00;99.90
17797;DHT22;55596;53.554;9.916;2023-02-04T06:20:57;-0.10;99.90
17797;DHT22;55596;53.554;9.916;2023-02-04T06:23:24;-0.20;99.90
17797;DHT22;55596;53.554;9.916;2023-02-04T06:25:52;-0.30;99.90
17797;DHT22;55596;53.554;9.916;2023-02-04T06:28:19;-0.40;99.90
17797;DHT22;55596;53.554;9.916;2023-02-04T06:30:46;-0.30;99.90
17797;DHT22;55596;53.554;9.916;2023-02-04T06:33:13;-0.40;99.90
17797;DHT22;55596;53.554;9.916;2023-02-04T06:35:40;-0.40;99.90
17797;DHT22;55596;53.554;9.916;2023-02-04T06:38:07;-0.40;99.90
17797;DHT22;55596;53.554;9.916;2023-02-04T06:40:34;-0.40;99.90
17797;DHT22;55596;53.554;9.916;2023-02-04T06:43:02;-0.40;99.90
17797;DHT22;55596;53.554;9.916;2023-02-04T06:45:29;-0.40;99.90
17797;DHT22;55596;53.554;9.916;2023-02-04T06:47:56;-0.30;99.90
17797;DHT22;55596;53.554;9.916;2023-02-04T06:50:22;-0.20;99.90
17797;DHT22;55596;53.554;9.916;2023-02-04T06:52:49;-0.10;99.90
17797;DHT22;55596;53.554;9.916;2023-02-04T06:55:16;-0.10;99.90
17797;DHT22;55596;53.554;9.916;2023-02-04T06:57:43;0.00;99.90
17797;DHT22;55596;53.554;9.916;2023-02-04T07:00:12;0.00;99.90
17797;DHT22;55596;53.554;9.916;2023-02-04T07:02:39;0.10;99.90
17797;DHT22;55596;53.554;9.916;2023-02-04T07:05:07;0.10;99.90
17797;DHT22;55596;53.554;9.916;2023-02-04T07:07:34;0.20;99.90
17797;DHT22;55596;53.554;9.916;2023-02-04T07:10:01;0.20;99.90
17797;DHT22;55596;53.554;9.916;2023-02-04T07:12:28;0.30;99.90
17797;DHT22;55596;53.554;9.916;2023-02-04T07:14:54;0.40;99.90
17797;DHT22;55596;53.554;9.916;2023-02-04T07:17:23;0.40;99.90
17797;DHT22;55596;53.554;9.916;2023-02-04T07:19:50;0.50;99.90
17797;DHT22;55596;53.554;9.916;2023-02-04T07:22:17;0.60;99.90
17797;DHT22;55596;53.554;9.916;2023-02-04T07:24:44;0.60;99.90
17797;DHT22;55596;53.554;9.916;2023-02-04T07:27:11;0.70;99.90
17797;DHT22;55596;53.554;9.916;2023-02-04T07:29:37;0.70;99.90
17797;DHT22;55596;53.554;9.916;2023-02-04T07:32:04;0.70;99.90
17797;DHT22;55596;53.554;9.916;2023-02-04T07:34:32;0.80;99.90
17797;DHT22;55596;53.554;9.916;2023-02-04T07:36:59;1.00;99.90
17797;DHT22;55596;53.554;9.916;2023-02-04T07:39:26;0.90;99.90
17797;DHT22;55596;53.554;9.916;2023-02-04T07:41:53;0.90;99.90
17797;DHT22;55596;53.554;9.916;2023-02-04T07:44:20;0.90;99.90
17797;DHT22;55596;53.554;9.916;2023-02-04T07:46:46;1.00;99.90
17797;DHT22;55596;53.554;9.916;2023-02-04T07:49:13;1.00;99.90
17797;DHT22;55596;53.554;9.916;2023-02-04T07:51:41;1.00;99.90
17797;DHT22;55596;53.554;9.916;2023-02-04T07:54:08;1.10;99.90
17797;DHT22;55596;53.554;9.916;2023-02-04T07:56:35;1.10;99.90
17797;DHT22;55596;53.554;9.916;2023-02-04T07:59:02;1.20;99.90
17797;DHT22;55596;53.554;9.916;2023-02-04T08:01:29;1.30;99.90
17797;DHT22;55596;53.554;9.916;2023-02-04T08:03:56;1.40;99.90
17797;DHT22;55596;53.554;9.916;2023-02-04T08:06:22;1.50;99.90
17797;DHT22;55596;53.554;9.916;2023-02-04T08:08:51;1.50;99.90
17797;DHT22;55596;53.554;9.916;2023-02-04T08:11:17;1.50;99.90
17797;DHT22;55596;53.554;9.916;2023-02-04T08:13:44;1.60;99.90
17797;DHT22;55596;53.554;9.916;2023-02-04T08:16:11;1.60;99.90
17797;DHT22;55596;53.554;9.916;2023-02-04T08:18:38;1.70;99.90
17797;DHT22;55596;53.554;9.916;2023-02-04T08:21:05;1.70;99.90
17797;DHT22;55596;53.554;9.916;2023-02-04T08:23:32;1.80;99.90
17797;DHT22;55596;53.554;9.916;2023-02-04T08:26:00;1.80;99.90
17797;DHT22;55596;53.554;9.916;2023-02-04T08:28:27;1.80;99.90
17797;DHT22;55596;53.554;9.916;2023-02-04T08:30:53;1.90;99.90
17797;DHT22;55596;53.554;9.916;2023-02-04T08:33:21;1.90;99.90
17797;DHT22;55596;53.554;9.916;2023-02-04T08:35:48;2.00;99.90
17797;DHT22;55596;53.554;9.916;2023-02-04T08:38:14;2.00;99.90
17797;DHT22;55596;53.554;9.916;2023-02-04T08:40:41;2.00;99.90
17797;DHT22;55596;53.554;9.916;2023-02-04T08:43:10;2.10;99.90
17797;DHT22;55596;53.554;9.916;2023-02-04T08:45:36;2.10;99.90
17797;DHT22;55596;53.554;9.916;2023-02-04T08:48:03;2.30;99.90
17797;DHT22;55596;53.554;9.916;2023-02-04T08:50:31;2.40;99.90
17797;DHT22;55596;53.554;9.916;2023-02-04T08:52:57;2.60;99.90
17797;DHT22;55596;53.554;9.916;2023-02-04T08:55:24;2.70;99.90
17797;DHT22;55596;53.554;9.916;2023-02-04T08:57:51;2.70;99.90
17797;DHT22;55596;53.554;9.916;2023-02-04T09:00:20;2.80;99.90
17797;DHT22;55596;53.554;9.916;2023-02-04T09:02:47;2.90;99.90
17797;DHT22;55596;53.554;9.916;2023-02-04T09:05:13;2.90;99.90
17797;DHT22;55596;53.554;9.916;2023-02-04T09:07:40;2.90;99.90
17797;DHT22;55596;53.554;9.916;2023-02-04T09:10:07;3.10;99.90
17797;DHT22;55596;53.554;9.916;2023-02-04T09:12:34;3.10;99.90
17797;DHT22;55596;53.554;9.916;2023-02-04T09:15:01;3.30;99.90
17797;DHT22;55596;53.554;9.916;2023-02-04T09:17:30;3.20;99.90
17797;DHT22;55596;53.554;9.916;2023-02-04T09:19:58;3.20;99.90
17797;DHT22;55596;53.554;9.916;2023-02-04T09:22:25;3.20;99.90
17797;DHT22;55596;53.554;9.916;2023-02-04T09:24:51;3.20;99.90
17797;DHT22;55596;53.554;9.916;2023-02-04T09:27:18;3.20;99.90
17797;DHT22;55596;53.554;9.916;2023-02-04T09:29:45;3.30;99.90
17797;DHT22;55596;53.554;9.916;2023-02-04T09:32:12;3.30;99.90
17797;DHT22;55596;53.554;9.916;2023-02-04T09:34:40;3.30;99.90
17797;DHT22;55596;53.554;9.916;2023-02-04T09:37:07;3.30;99.90
17797;DHT22;55596;53.554;9.916;2023-02-04T09:39:34;3.30;99.90
17797;DHT22;55596;53.554;9.916;2023-02-04T09:42:01;3.20;99.90
17797;DHT22;55596;53.554;9.916;2023-02-04T09:44:27;3.20;99.90
17797;DHT22;55596;53.554;9.916;2023-02-04T09:46:57;3.20;99.90
17797;DHT22;55596;53.554;9.916;2023-02-04T09:49:24;3.30;99.90
17797;DHT22;55596;53.554;9.916;2023-02-04T09:51:53;3.20;99.90
17797;DHT22;55596;53.554;9.916;2023-02-04T09:54:22;3.30;99.90
17797;DHT22;55596;53.554;9.916;2023-02-04T09:56:50;3.30;99.90
17797;DHT22;55596;53.554;9.916;2023-02-04T09:59:19;3.40;99.90
17797;DHT22;55596;53.554;9.916;2023-02-04T10:01:50;3.50;99.90
17797;DHT22;55596;53.554;9.916;2023-02-04T10:04:21;3.50;99.90
17797;DHT22;55596;53.554;9.916;2023-02-04T10:06:48;3.60;99.90
17797;DHT22;55596;53.554;9.916;2023-02-04T10:09:17;3.70;99.90
17797;DHT22;55596;53.554;9.916;2023-02-04T10:11:46;3.80;99.90
17797;DHT22;55596;53.554;9.916;2023-02-04T10:14:14;3.80;99.90
17797;DHT22;55596;53.554;9.916;2023-02-04T10:16:43;3.90;99.90
17797;DHT22;55596;53.554;9.916;2023-02-04T10:19:13;4.10;99.90
17797;DHT22;55596;53.554;9.916;2023-02-04T10:21:41;4.20;99.90
17797;DHT22;55596;53.554;9.916;2023-02-04T10:24:12;4.40;99.90
17797;DHT22;55596;53.554;9.916;2023-02-04T10:26:41;4.60;99.90
17797;DHT22;55596;53.554;9.916;2023-02-04T10:29:12;4.90;99.90
17797;DHT22;55596;53.554;9.916;2023-02-04T10:31:41;5.20;99.90
17797;DHT22;55596;53.554;9.916;2023-02-04T10:34:13;5.50;99.90
17797;DHT22;55596;53.554;9.916;2023-02-04T10:36:42;5.70;99.90
17797;DHT22;55596;53.554;9.916;2023-02-04T10:39:14;5.80;99.90
17797;DHT22;55596;53.554;9.916;2023-02-04T10:41:47;6.00;99.90
17797;DHT22;55596;53.554;9.916;2023-02-04T10:44:16;6.20;99.90
17797;DHT22;55596;53.554;9.916;2023-02-04T10:46:43;6.30;99.90
17797;DHT22;55596;53.554;9.916;2023-02-04T10:49:18;6.40;99.90
17797;DHT22;55596;53.554;9.916;2023-02-04T10:51:46;6.50;99.90
17797;DHT22;55596;53.554;9.916;2023-02-04T10:54:14;6.40;99.90
17797;DHT22;55596;53.554;9.916;2023-02-04T10:57:04;6.60;99.90
17797;DHT22;55596;53.554;9.916;2023-02-04T10:59:33;6.80;99.90
17797;DHT22;55596;53.554;9.916;2023-02-04T11:04:54;7.20;99.90
17797;DHT22;55596;53.554;9.916;2023-02-04T11:07:21;7.30;99.90
17797;DHT22;55596;53.554;9.916;2023-02-04T11:09:49;7.50;99.90
17797;DHT22;55596;53.554;9.916;2023-02-04T11:12:22;7.80;99.90
17797;DHT22;55596;53.554;9.916;2023-02-04T11:14:55;8.00;99.90
17797;DHT22;55596;53.554;9.916;2023-02-04T11:17:28;8.00;99.90
17797;DHT22;55596;53.554;9.916;2023-02-04T11:19:56;8.10;99.90
17797;DHT22;55596;53.554;9.916;2023-02-04T11:22:36;8.00;99.90
17797;DHT22;55596;53.554;9.916;2023-02-04T11:25:30;8.10;99.90
17797;DHT22;55596;53.554;9.916;2023-02-04T11:27:59;8.20;99.90
17797;DHT22;55596;53.554;9.916;2023-02-04T11:30:31;8.20;99.90
17797;DHT22;55596;53.554;9.916;2023-02-04T11:33:02;8.30;99.90
17797;DHT22;55596;53.554;9.916;2023-02-04T11:35:30;8.10;99.90
17797;DHT22;55596;53.554;9.916;2023-02-04T11:37:57;7.90;99.90
17797;DHT22;55596;53.554;9.916;2023-02-04T11:40:29;8.10;99.90
17797;DHT22;55596;53.554;9.916;2023-02-04T11:43:03;8.00;99.90
17797;DHT22;55596;53.554;9.916;2023-02-04T11:45:35;7.90;99.90
17797;DHT22;55596;53.554;9.916;2023-02-04T11:48:11;7.90;99.90
17797;DHT22;55596;53.554;9.916;2023-02-04T11:50:38;8.00;99.90
17797;DHT22;55596;53.554;9.916;2023-02-04T11:53:09;8.50;99.90
17797;DHT22;55596;53.554;9.916;2023-02-04T11:55:42;8.60;99.90
17797;DHT22;55596;53.554;9.916;2023-02-04T11:58:13;8.60;99.90
17797;DHT22;55596;53.554;9.916;2023-02-04T12:00:41;8.50;99.90
17797;DHT22;55596;53.554;9.916;2023-02-04T12:03:47;8.60;99.90
17797;DHT22;55596;53.554;9.916;2023-02-04T12:06:20;8.70;99.90
17797;DHT22;55596;53.554;9.916;2023-02-04T12:08:47;8.90;99.90
17797;DHT22;55596;53.554;9.916;2023-02-04T12:11:24;10.70;99.90
17797;DHT22;55596;53.554;9.916;2023-02-04T12:13:53;9.40;99.90
17797;DHT22;55596;53.554;9.916;2023-02-04T12:16:21;9.40;99.90
17797;DHT22;55596;53.554;9.916;2023-02-04T12:18:49;9.10;99.90
17797;DHT22;55596;53.554;9.916;2023-02-04T12:21:16;9.00;99.90
17797;DHT22;55596;53.554;9.916;2023-02-04T12:23:44;9.00;99.90
17797;DHT22;55596;53.554;9.916;2023-02-04T12:26:11;9.20;99.90
17797;DHT22;55596;53.554;9.916;2023-02-04T12:28:38;9.30;99.90
17797;DHT22;55596;53.554;9.916;2023-02-04T12:31:04;9.60;99.90
17797;DHT22;55596;53.554;9.916;2023-02-04T12:33:31;9.90;99.90
17797;DHT22;55596;53.554;9.916;2023-02-04T12:35:59;10.20;99.90
17797;DHT22;55596;53.554;9.916;2023-02-04T12:38:26;10.50;99.90
17797;DHT22;55596;53.554;9.916;2023-02-04T12:40:53;10.70;99.90
17797;DHT22;55596;53.554;9.916;2023-02-04T12:43:20;10.60;99.90
17797;DHT22;55596;53.554;9.916;2023-02-04T12:45:47;10.90;99.90
17797;DHT22;55596;53.554;9.916;2023-02-04T12:48:14;10.80;99.90
17797;DHT22;55596;53.554;9.916;2023-02-04T12:50:41;10.80;99.90
17797;DHT22;55596;53.554;9.916;2023-02-04T12:53:09;10.60;99.90
17797;DHT22;55596;53.554;9.916;2023-02-04T12:55:36;10.80;99.90
17797;DHT22;55596;53.554;9.916;2023-02-04T12:58:03;11.40;99.90
17797;DHT22;55596;53.554;9.916;2023-02-04T13:00:30;11.80;99.90
17797;DHT22;55596;53.554;9.916;2023-02-04T13:02:56;12.40;99.90
17797;DHT22;55596;53.554;9.916;2023-02-04T13:05:24;13.00;99.90
17797;DHT22;55596;53.554;9.916;2023-02-04T13:07:51;13.30;99.90
17797;DHT22;55596;53.554;9.916;2023-02-04T13:10:19;13.00;99.90
17797;DHT22;55596;53.554;9.916;2023-02-04T13:12:48;12.30;99.90
17797;DHT22;55596;53.554;9.916;2023-02-04T13:15:15;11.80;99.90
17797;DHT22;55596;53.554;9.916;2023-02-04T13:17:42;11.60;99.90
17797;DHT22;55596;53.554;9.916;2023-02-04T13:20:10;11.30;99.90
17797;DHT22;55596;53.554;9.916;2023-02-04T13:22:37;11.50;99.90
17797;DHT22;55596;53.554;9.916;2023-02-04T13:25:05;11.70;99.90
17797;DHT22;55596;53.554;9.916;2023-02-04T13:27:33;12.00;99.90
17797;DHT22;55596;53.554;9.916;2023-02-04T13:30:00;12.30;99.90
17797;DHT22;55596;53.554;9.916;2023-02-04T13:32:27;12.40;99.90
17797;DHT22;55596;53.554;9.916;2023-02-04T13:34:54;12.70;99.90
17797;DHT22;55596;53.554;9.916;2023-02-04T13:37:20;12.90;99.90
17797;DHT22;55596;53.554;9.916;2023-02-04T13:39:47;13.20;99.90
17797;DHT22;55596;53.554;9.916;2023-02-04T13:42:14;13.10;99.90
17797;DHT22;55596;53.554;9.916;2023-02-04T13:44:42;13.30;99.90
17797;DHT22;55596;53.554;9.916;2023-02-04T13:47:09;12.90;99.10
17797;DHT22;55596;53.554;9.916;2023-02-04T13:49:36;12.30;99.20
17797;DHT22;55596;53.554;9.916;2023-02-04T13:52:03;11.90;99.10
17797;DHT22;55596;53.554;9.916;2023-02-04T13:54:30;11.00;99.40
17797;DHT22;55596;53.554;9.916;2023-02-04T13:56:57;10.40;99.90
17797;DHT22;55596;53.554;9.916;2023-02-04T13:59:24;10.20;99.90
17797;DHT22;55596;53.554;9.916;2023-02-04T14:01:52;9.90;99.90
17797;DHT22;55596;53.554;9.916;2023-02-04T14:04:19;9.50;99.90
17797;DHT22;55596;53.554;9.916;2023-02-04T14:06:45;9.20;99.90
17797;DHT22;55596;53.554;9.916;2023-02-04T14:09:12;9.00;99.90
17797;DHT22;55596;53.554;9.916;2023-02-04T14:11:39;8.70;99.90
17797;DHT22;55596;53.554;9.916;2023-02-04T14:14:06;8.60;99.90
17797;DHT22;55596;53.554;9.916;2023-02-04T14:16:33;8.70;99.90
17797;DHT22;55596;53.554;9.916;2023-02-04T14:19:01;8.70;99.90
17797;DHT22;55596;53.554;9.916;2023-02-04T14:21:28;8.60;99.90
17797;DHT22;55596;53.554;9.916;2023-02-04T14:23:56;8.60;99.90
17797;DHT22;55596;53.554;9.916;2023-02-04T14:26:23;8.60;99.90
17797;DHT22;55596;53.554;9.916;2023-02-04T14:28:50;8.50;99.90
17797;DHT22;55596;53.554;9.916;2023-02-04T14:31:17;8.30;99.90
17797;DHT22;55596;53.554;9.916;2023-02-04T14:33:44;8.10;99.90
17797;DHT22;55596;53.554;9.916;2023-02-04T14:36:12;7.90;99.90
17797;DHT22;55596;53.554;9.916;2023-02-04T14:38:39;7.60;99.90
17797;DHT22;55596;53.554;9.916;2023-02-04T14:41:06;7.50;99.90
17797;DHT22;55596;53.554;9.916;2023-02-04T14:43:33;7.50;99.90
17797;DHT22;55596;53.554;9.916;2023-02-04T14:46:02;7.40;99.90
17797;DHT22;55596;53.554;9.916;2023-02-04T14:48:29;7.20;99.90
17797;DHT22;55596;53.554;9.916;2023-02-04T14:50:56;7.10;99.90
17797;DHT22;55596;53.554;9.916;2023-02-04T14:53:24;7.00;99.90
17797;DHT22;55596;53.554;9.916;2023-02-04T14:55:51;6.90;99.90
17797;DHT22;55596;53.554;9.916;2023-02-04T14:58:17;6.80;99.90
17797;DHT22;55596;53.554;9.916;2023-02-04T15:00:44;6.70;99.90
17797;DHT22;55596;53.554;9.916;2023-02-04T15:03:11;6.60;99.90
17797;DHT22;55596;53.554;9.916;2023-02-04T15:05:38;6.50;99.90
17797;DHT22;55596;53.554;9.916;2023-02-04T15:08:05;6.50;99.90
17797;DHT22;55596;53.554;9.916;2023-02-04T15:10:33;6.50;99.90
17797;DHT22;55596;53.554;9.916;2023-02-04T15:12:59;6.40;99.90
17797;DHT22;55596;53.554;9.916;2023-02-04T15:15:26;6.30;99.90
17797;DHT22;55596;53.554;9.916;2023-02-04T15:17:53;6.10;99.90
17797;DHT22;55596;53.554;9.916;2023-02-04T15:20:20;5.90;99.90
17797;DHT22;55596;53.554;9.916;2023-02-04T15:22:47;5.80;99.90
17797;DHT22;55596;53.554;9.916;2023-02-04T15:25:16;5.70;99.90
17797;DHT22;55596;53.554;9.916;2023-02-04T15:27:44;5.60;99.90
17797;DHT22;55596;53.554;9.916;2023-02-04T15:30:11;5.60;99.90
17797;DHT22;55596;53.554;9.916;2023-02-04T15:32:38;5.40;99.90
17797;DHT22;55596;53.554;9.916;2023-02-04T15:35:07;5.30;99.90
17797;DHT22;55596;53.554;9.916;2023-02-04T15:37:34;5.20;99.90
17797;DHT22;55596;53.554;9.916;2023-02-04T15:40:01;5.10;99.90
17797;DHT22;55596;53.554;9.916;2023-02-04T15:42:28;5.00;99.90
17797;DHT22;55596;53.554;9.916;2023-02-04T15:44:56;5.00;99.90
17797;DHT22;55596;53.554;9.916;2023-02-04T15:47:23;5.00;99.90
17797;DHT22;55596;53.554;9.916;2023-02-04T15:49:50;4.90;99.90
17797;DHT22;55596;53.554;9.916;2023-02-04T15:52:16;4.80;99.90